This is the latest recevied weather packets stored in our database for station/object 5B4APJ-13. If no packets are shown the sender has not sent any weather packets the latest 10 day(s).
| Time | Temp. | Humidity | Pressure | Rain* | Wind** | Luminosity | Snow |
|---|---|---|---|---|---|---|---|
| 1777461428 | 23.89° C | 55% | 1014 hPa | 0 mm | 0.89 m/s, 190° | 133 W/m² | - |
| 1777461129 | 23.89° C | 51% | 1014.2 hPa | 0 mm | 1.34 m/s, 192° | 662 W/m² | - |
| 1777460829 | 23.89° C | 50% | 1014.2 hPa | 0 mm | 2.24 m/s, 240° | 854 W/m² | - |
| 1777460528 | 23.89° C | 51% | 1014.3 hPa | 0 mm | 1.34 m/s, 230° | 835 W/m² | - |
| 1777460228 | 23.89° C | 49% | 1014 hPa | 0 mm | 4.02 m/s, 192° | 817 W/m² | - |
| 1777459928 | 23.33° C | 47% | 1013.9 hPa | 0 mm | 1.79 m/s, 107° | 814 W/m² | - |
| 1777459628 | 23.33° C | 48% | 1014.2 hPa | 0 mm | 2.68 m/s, 63° | 817 W/m² | - |
| 1777459328 | 22.78° C | 51% | 1014.3 hPa | 0 mm | 3.58 m/s, 74° | 824 W/m² | - |
| 1777459028 | 22.78° C | 53% | 1014.4 hPa | 0 mm | 2.24 m/s, 150° | 822 W/m² | - |
| 1777458728 | 22.78° C | 53% | 1014.4 hPa | 0 mm | 2.68 m/s, 125° | 831 W/m² | - |
| 1777458428 | 23.33° C | 53% | 1014.3 hPa | 0 mm | 4.02 m/s, 112° | 835 W/m² | - |
| 1777458128 | 23.33° C | 53% | 1014.3 hPa | 0 mm | 2.24 m/s, 224° | 849 W/m² | - |
| 1777457828 | 23.33° C | 54% | 1014.4 hPa | 0 mm | 1.79 m/s, 171° | 848 W/m² | - |
| 1777457528 | 22.78° C | 56% | 1014.5 hPa | 0 mm | 1.79 m/s, 62° | 851 W/m² | - |
| 1777457228 | 23.33° C | 54% | 1014.3 hPa | 0 mm | 3.58 m/s, 104° | 849 W/m² | - |
| 1777456928 | 22.78° C | 56% | 1014.2 hPa | 0 mm | 4.47 m/s, 108° | 848 W/m² | - |
| 1777456628 | 23.33° C | 56% | 1014.5 hPa | 0 mm | 1.79 m/s, 237° | 843 W/m² | - |
| 1777456329 | 22.78° C | 57% | 1014.4 hPa | 0 mm | 2.68 m/s, 262° | 847 W/m² | - |
| 1777456029 | 23.33° C | 55% | 1014.3 hPa | 0 mm | 1.79 m/s, 124° | 842 W/m² | - |
| 1777455729 | 23.33° C | 56% | 1014.4 hPa | 0 mm | 2.68 m/s, 107° | 843 W/m² | - |
| 1777455429 | 23.33° C | 54% | 1014.3 hPa | 0 mm | 3.58 m/s, 107° | 841 W/m² | - |
| 1777455129 | 23.33° C | 57% | 1014.4 hPa | 0 mm | 1.79 m/s, 205° | 834 W/m² | - |
| 1777454829 | 22.78° C | 56% | 1014.2 hPa | 0 mm | 2.24 m/s, 109° | 831 W/m² | - |
| 1777454529 | 22.78° C | 57% | 1014.5 hPa | 0 mm | 3.13 m/s, 132° | 823 W/m² | - |
| 1777454229 | 22.78° C | 58% | 1014.5 hPa | 0 mm | 2.68 m/s, 103° | 830 W/m² | - |
* Rain latest hour (hover to see other rain measurements)
** Current wind speed in m/s (hover to see current wind gust speed)